createdAt,value
2018-06-13T05:43:06.579Z,3.30
2018-06-13T05:45:34.731Z,3.63
2018-06-13T05:48:02.673Z,3.20
2018-06-13T05:50:30.843Z,3.20
2018-06-13T05:52:59.134Z,3.50
2018-06-13T05:55:27.302Z,3.53
2018-06-13T05:57:55.488Z,3.40
2018-06-13T06:00:23.646Z,3.00
2018-06-13T06:02:51.787Z,3.20
2018-06-13T06:05:19.965Z,3.10
2018-06-13T06:07:48.099Z,3.57
2018-06-13T06:10:16.360Z,2.67
2018-06-13T06:12:44.481Z,3.50
2018-06-13T06:15:12.638Z,3.00
2018-06-13T06:17:40.782Z,3.40
2018-06-13T06:20:08.938Z,3.20
2018-06-13T06:22:37.193Z,3.10
2018-06-13T06:25:06.002Z,3.57
2018-06-13T06:27:34.209Z,2.83
2018-06-13T06:30:02.360Z,3.90
2018-06-13T06:32:30.612Z,3.13
2018-06-13T06:34:58.922Z,3.37
2018-06-13T06:37:27.081Z,3.90
2018-06-13T06:39:55.209Z,3.30
2018-06-13T06:42:23.366Z,3.40
2018-06-13T06:44:51.553Z,3.53
2018-06-13T06:47:19.742Z,3.27
2018-06-13T06:49:47.894Z,3.17
2018-06-13T06:52:16.166Z,2.67
2018-06-13T06:54:44.306Z,3.20
2018-06-13T06:57:12.479Z,2.93
2018-06-13T06:59:40.631Z,3.03
2018-06-13T07:02:08.841Z,3.23
2018-06-13T07:04:37.043Z,2.90
2018-06-13T07:07:05.194Z,2.83
2018-06-13T07:09:33.539Z,3.17
2018-06-13T07:12:01.666Z,3.00
2018-06-13T07:14:29.836Z,3.00
2018-06-13T07:16:58.126Z,2.60
2018-06-13T07:19:26.045Z,3.03
2018-06-13T07:21:54.206Z,2.50
2018-06-13T07:24:22.385Z,2.27
2018-06-13T07:26:50.682Z,2.17
2018-06-13T07:29:18.893Z,2.37
2018-06-13T07:31:47.038Z,1.80
2018-06-13T07:34:15.184Z,2.07
2018-06-13T07:36:43.330Z,2.27
2018-06-13T07:39:11.482Z,2.00
2018-06-13T07:41:39.651Z,2.00
2018-06-13T07:44:07.814Z,2.03
2018-06-13T07:46:35.957Z,1.70
2018-06-13T07:49:04.104Z,1.90
2018-06-13T07:51:32.250Z,2.00
2018-06-13T07:54:00.406Z,1.50
2018-06-13T07:56:28.546Z,1.50
2018-06-13T07:58:56.759Z,1.60
2018-06-13T08:01:24.910Z,1.60
2018-06-13T08:03:53.049Z,1.40
2018-06-13T08:06:21.206Z,1.73
2018-06-13T08:08:50.035Z,1.40
2018-06-13T08:11:18.184Z,1.80
2018-06-13T08:13:46.317Z,1.47
2018-06-13T08:16:14.466Z,1.70
2018-06-13T08:18:42.622Z,1.67
2018-06-13T08:21:10.798Z,1.70
2018-06-13T08:23:38.967Z,1.30
2018-06-13T08:26:07.138Z,1.50
2018-06-13T08:28:35.281Z,1.57
2018-06-13T08:31:03.482Z,1.43
2018-06-13T08:33:31.638Z,1.37
2018-06-13T08:35:59.802Z,1.30
2018-06-13T08:38:27.966Z,1.40
2018-06-13T08:40:56.154Z,1.57
2018-06-13T08:43:25.122Z,1.40
2018-06-13T08:45:53.290Z,1.60
2018-06-13T08:48:21.439Z,1.40
2018-06-13T08:50:49.585Z,2.20
2018-06-13T08:53:17.753Z,1.67
2018-06-13T08:55:45.969Z,2.03
2018-06-13T08:58:14.102Z,2.00
2018-06-13T09:00:42.266Z,2.03
2018-06-13T09:03:10.470Z,1.90
2018-06-13T09:05:38.648Z,1.57
2018-06-13T09:08:06.802Z,1.70
2018-06-13T09:10:34.936Z,1.20
2018-06-13T09:13:03.088Z,1.70
2018-06-13T09:15:31.040Z,1.70
2018-06-13T09:17:59.245Z,1.57
2018-06-13T09:20:27.400Z,2.00
2018-06-13T09:22:55.554Z,1.30
2018-06-13T09:25:23.808Z,1.80
2018-06-13T09:27:51.978Z,1.50
2018-06-13T09:30:20.121Z,1.50
2018-06-13T09:32:48.281Z,1.90
2018-06-13T09:35:16.635Z,1.80
2018-06-13T09:37:44.895Z,1.43
2018-06-13T09:40:12.978Z,1.67
2018-06-13T09:42:41.166Z,1.57
2018-06-13T09:45:09.382Z,1.90
2018-06-13T09:47:37.542Z,1.80
2018-06-13T09:50:05.751Z,1.50
2018-06-13T09:52:33.860Z,1.57
2018-06-13T09:55:02.046Z,1.70
2018-06-13T09:57:30.262Z,1.77
2018-06-13T10:00:03.751Z,2.10
2018-06-13T10:02:36.114Z,1.97
2018-06-13T10:05:04.886Z,1.37
2018-06-13T10:07:33.042Z,1.70
2018-06-13T10:10:01.246Z,1.87
2018-06-13T10:12:29.414Z,1.80
2018-06-13T10:14:57.648Z,1.30
2018-06-13T10:17:25.730Z,2.00
2018-06-13T10:19:54.210Z,1.53
2018-06-13T10:22:22.437Z,1.50
2018-06-13T10:24:50.640Z,1.53
2018-06-13T10:27:24.170Z,2.03
2018-06-13T10:29:52.335Z,1.87
2018-06-13T10:32:20.514Z,1.60
2018-06-13T10:34:48.671Z,2.13
2018-06-13T10:37:16.871Z,1.80
2018-06-13T10:39:45.022Z,1.83
2018-06-13T10:42:13.171Z,1.90
2018-06-13T10:44:41.352Z,1.90
2018-06-13T10:47:09.494Z,2.20
2018-06-13T10:49:37.413Z,2.20
2018-06-13T10:52:06.597Z,2.30
2018-06-13T10:54:34.763Z,2.47
2018-06-13T10:57:02.922Z,2.93
2018-06-13T10:59:31.078Z,2.40
2018-06-13T11:01:59.222Z,2.00
2018-06-13T11:04:27.452Z,1.90
2018-06-13T11:06:55.356Z,2.60
2018-06-13T11:09:23.522Z,1.70
2018-06-13T11:11:51.918Z,1.83
2018-06-13T11:14:20.098Z,2.17
2018-06-13T11:16:48.266Z,2.70
2018-06-13T11:19:16.402Z,2.37
2018-06-13T11:21:44.574Z,2.53
2018-06-13T11:24:12.724Z,2.60
2018-06-13T11:26:40.865Z,1.93
2018-06-13T11:29:09.032Z,2.67
2018-06-13T11:31:36.989Z,2.43
2018-06-13T11:34:05.213Z,2.40
2018-06-13T11:36:33.362Z,2.37
2018-06-13T11:39:01.621Z,2.50
2018-06-13T11:41:29.847Z,2.33
2018-06-13T11:43:57.998Z,2.30
2018-06-13T11:46:26.152Z,2.43
2018-06-13T11:48:54.637Z,2.30
2018-06-13T11:51:22.820Z,2.07
2018-06-13T11:53:50.975Z,2.50
2018-06-13T11:56:19.138Z,2.50
2018-06-13T11:58:47.286Z,2.13
2018-06-13T12:01:15.430Z,2.07
2018-06-13T12:03:43.585Z,2.07
2018-06-13T12:06:11.892Z,2.00
2018-06-13T12:08:40.036Z,2.27
2018-06-13T12:11:08.182Z,1.93
2018-06-13T12:13:36.327Z,2.17
2018-06-13T12:16:04.237Z,2.20
2018-06-13T12:18:32.389Z,1.80
2018-06-13T12:21:00.538Z,2.40
2018-06-13T12:23:28.690Z,2.10
2018-06-13T12:25:56.985Z,2.00
2018-06-13T12:28:25.290Z,1.60
2018-06-13T12:30:53.297Z,2.07
2018-06-13T12:33:21.446Z,2.07
2018-06-13T12:35:49.606Z,1.97
2018-06-13T12:38:17.761Z,2.07
2018-06-13T12:40:46.164Z,2.20
2018-06-13T12:43:14.446Z,1.67
2018-06-13T12:45:42.622Z,2.20
2018-06-13T12:48:10.819Z,1.90
2018-06-13T12:50:38.797Z,1.77
2018-06-13T12:53:06.954Z,2.30
2018-06-13T12:55:35.134Z,2.50
2018-06-13T12:58:03.511Z,2.60
2018-06-13T13:00:31.813Z,2.20
2018-06-13T13:03:00.120Z,2.10
2018-06-13T13:05:28.267Z,1.80
2018-06-13T13:07:56.166Z,2.07
2018-06-13T13:10:24.425Z,1.97
2018-06-13T13:12:52.627Z,2.53
2018-06-13T13:15:20.850Z,2.10
2018-06-13T13:17:49.015Z,2.00
2018-06-13T13:20:17.249Z,1.50
2018-06-13T13:22:45.418Z,2.00
2018-06-13T13:25:13.612Z,2.03
2018-06-13T13:27:41.757Z,2.10
2018-06-13T13:30:09.942Z,2.10
2018-06-13T13:32:38.093Z,2.07
2018-06-13T13:35:06.266Z,2.23
2018-06-13T13:37:34.442Z,2.07
2018-06-13T13:40:02.629Z,2.13
2018-06-13T13:42:30.774Z,1.90
2018-06-13T13:44:58.958Z,1.80
2018-06-13T13:47:27.134Z,2.50
2018-06-13T13:49:55.290Z,2.03
2018-06-13T13:52:23.438Z,2.37
2018-06-13T13:54:51.611Z,2.37
2018-06-13T13:57:19.802Z,2.00
2018-06-13T13:59:47.946Z,2.23
2018-06-13T14:02:16.098Z,2.70
2018-06-13T14:04:44.242Z,2.10
2018-06-13T14:07:12.397Z,2.07
2018-06-13T14:09:40.534Z,1.87
2018-06-13T14:12:08.683Z,2.00
2018-06-13T14:14:37.012Z,2.60
2018-06-13T14:17:05.366Z,2.40
2018-06-13T14:19:33.515Z,2.40
2018-06-13T14:22:01.687Z,2.20
2018-06-13T14:24:30.050Z,2.20
2018-06-13T14:26:58.282Z,2.23
2018-06-13T14:29:26.437Z,2.20
2018-06-13T14:31:54.614Z,2.40
2018-06-13T14:34:22.795Z,1.87
2018-06-13T14:36:50.962Z,2.20
2018-06-13T14:39:19.154Z,2.27
2018-06-13T14:41:47.305Z,1.93
2018-06-13T14:44:15.206Z,1.80
2018-06-13T14:46:43.382Z,1.83
2018-06-13T14:49:11.537Z,1.83
2018-06-13T14:51:39.713Z,2.33
2018-06-13T14:54:08.578Z,2.03
2018-06-13T14:56:36.840Z,1.77
2018-06-13T14:59:04.987Z,2.00
2018-06-13T15:01:33.117Z,2.27
2018-06-13T15:04:01.263Z,1.70
2018-06-13T15:06:29.940Z,2.00
2018-06-13T15:08:58.639Z,2.10
2018-06-13T15:11:26.850Z,2.07
2018-06-13T15:13:54.994Z,1.80
2018-06-13T15:16:23.134Z,1.83
2018-06-13T15:18:51.304Z,2.10
2018-06-13T15:21:19.480Z,2.30
2018-06-13T15:23:47.637Z,2.37
2018-06-13T15:26:15.805Z,2.17
2018-06-13T15:28:44.266Z,1.93
2018-06-13T15:31:12.441Z,1.90
2018-06-13T15:33:40.618Z,2.37
2018-06-13T15:36:08.762Z,1.90
2018-06-13T15:38:37.055Z,1.80
2018-06-13T15:41:05.212Z,2.23
2018-06-13T15:43:33.361Z,2.10
2018-06-13T15:46:01.521Z,2.57
2018-06-13T15:48:30.686Z,1.97
2018-06-13T15:50:58.926Z,2.73
2018-06-13T15:53:27.362Z,2.33
2018-06-13T15:55:55.698Z,2.20
2018-06-13T15:58:23.648Z,2.30
2018-06-13T16:00:52.782Z,2.37
2018-06-13T16:03:21.853Z,2.20
2018-06-13T16:05:50.017Z,2.50
2018-06-13T16:08:18.163Z,2.90
2018-06-13T16:10:46.324Z,2.20
2018-06-13T16:13:14.457Z,3.03
2018-06-13T16:15:42.711Z,2.40
2018-06-13T16:18:10.918Z,2.23
2018-06-13T16:20:39.094Z,2.57
2018-06-13T16:23:07.246Z,2.17
2018-06-13T16:25:35.418Z,2.43
2018-06-13T16:28:03.586Z,2.17
2018-06-13T16:30:31.765Z,2.47
2018-06-13T16:32:59.910Z,2.37
2018-06-13T16:35:28.105Z,2.20
2018-06-13T16:37:56.414Z,2.10
2018-06-13T16:40:24.547Z,2.27
2018-06-13T16:42:52.710Z,2.47
2018-06-13T16:45:20.886Z,2.43
2018-06-13T16:47:49.210Z,2.90
2018-06-13T16:50:28.810Z,2.40
2018-06-13T16:54:10.757Z,2.30
2018-06-13T16:56:39.421Z,2.23
2018-06-13T16:59:07.574Z,2.33
2018-06-13T17:01:35.746Z,2.43
2018-06-13T17:04:03.904Z,2.50
2018-06-13T17:06:32.082Z,2.73
2018-06-13T17:09:00.231Z,2.40
2018-06-13T17:11:28.634Z,2.87
2018-06-13T17:13:56.581Z,2.40
2018-06-13T17:16:24.735Z,3.03
2018-06-13T17:18:52.978Z,2.50
2018-06-13T17:21:21.841Z,2.10
2018-06-13T17:23:50.034Z,2.23
2018-06-13T17:26:17.945Z,2.50
2018-06-13T17:28:46.177Z,2.30
2018-06-13T17:31:14.502Z,2.43
2018-06-13T17:33:42.674Z,2.03
2018-06-13T17:36:10.819Z,2.10
2018-06-13T17:38:38.773Z,2.00
2018-06-13T17:41:07.754Z,2.47
2018-06-13T17:43:35.954Z,2.50
2018-06-13T17:46:04.132Z,2.30
2018-06-13T17:48:32.303Z,2.10
2018-06-13T17:51:00.484Z,2.30
2018-06-13T17:53:29.843Z,2.37
2018-06-13T17:55:58.282Z,2.70
2018-06-13T17:58:26.450Z,2.17
2018-06-13T18:00:54.595Z,1.70
2018-06-13T18:03:22.770Z,2.27
2018-06-13T18:05:51.429Z,2.27
2018-06-13T18:08:19.629Z,2.40
2018-06-13T18:10:47.822Z,2.30
2018-06-13T18:13:15.978Z,2.20
2018-06-13T18:15:44.159Z,2.53
2018-06-13T18:18:12.296Z,2.60
2018-06-13T18:20:40.467Z,2.70
2018-06-13T18:23:08.614Z,2.30
2018-06-13T18:25:36.798Z,2.43
2018-06-13T18:28:05.298Z,2.20
2018-06-13T18:30:33.458Z,2.50
2018-06-13T18:33:01.601Z,2.70
2018-06-13T18:35:29.882Z,2.63
2018-06-13T18:37:58.050Z,2.73
2018-06-13T18:40:26.198Z,2.83
2018-06-13T18:42:54.093Z,2.33
2018-06-13T18:45:22.262Z,2.70
2018-06-13T18:47:50.594Z,2.30
2018-06-13T18:50:18.861Z,2.73
2018-06-13T18:52:47.054Z,2.57
2018-06-13T18:55:15.282Z,2.17
2018-06-13T18:57:43.569Z,2.63
2018-06-13T19:00:11.809Z,2.60
2018-06-13T19:02:39.978Z,2.70
2018-06-13T19:05:08.149Z,2.90
2018-06-13T19:07:36.301Z,2.67
2018-06-13T19:10:05.190Z,2.77
2018-06-13T19:12:33.483Z,2.97
2018-06-13T19:15:01.674Z,3.60
2018-06-13T19:17:29.866Z,4.40
2018-06-13T19:19:58.006Z,3.50
2018-06-13T19:22:26.350Z,3.67
2018-06-13T19:24:54.644Z,3.00
2018-06-13T19:27:22.849Z,3.63
2018-06-13T19:29:50.994Z,3.33
2018-06-13T19:32:19.159Z,3.07
2018-06-13T19:34:48.041Z,3.00
2018-06-13T19:37:16.322Z,2.93
2018-06-13T19:39:44.602Z,3.10
2018-06-13T19:42:13.186Z,3.80
2018-06-13T19:44:41.388Z,4.03
2018-06-13T19:47:15.122Z,3.90
2018-06-13T19:49:43.561Z,3.50
2018-06-13T19:52:11.934Z,3.30
2018-06-13T19:54:45.593Z,3.70
2018-06-13T19:57:13.830Z,3.33
2018-06-13T19:59:41.998Z,4.00
2018-06-13T20:02:10.162Z,3.60
2018-06-13T20:04:43.854Z,3.77
2018-06-13T20:07:19.042Z,3.50
2018-06-13T20:09:47.193Z,3.90
2018-06-13T20:12:43.413Z,3.63
2018-06-13T20:15:17.293Z,3.73
2018-06-13T20:17:50.981Z,4.43
2018-06-13T20:20:19.162Z,3.87
2018-06-13T20:22:48.098Z,3.90
2018-06-13T20:25:21.710Z,3.93
2018-06-13T20:27:55.465Z,4.00
2018-06-13T20:30:29.166Z,4.00
2018-06-13T20:32:57.313Z,4.20
2018-06-13T20:35:25.535Z,3.87
2018-06-13T20:37:53.710Z,3.80
2018-06-13T20:40:22.029Z,3.43
2018-06-13T20:42:50.166Z,4.23
2018-06-13T20:45:18.619Z,4.40
2018-06-13T20:47:46.757Z,4.30
2018-06-13T20:50:15.094Z,4.20
2018-06-13T20:52:43.236Z,4.27
2018-06-13T20:55:11.382Z,4.80
2018-06-13T20:57:39.514Z,5.00
2018-06-13T21:00:07.688Z,4.67
2018-06-13T21:02:35.946Z,4.30
2018-06-13T21:05:03.857Z,4.40
2018-06-13T21:07:34.039Z,4.70
2018-06-13T21:10:02.347Z,4.70
2018-06-13T21:12:30.478Z,4.80
2018-06-13T21:14:58.622Z,4.53
2018-06-13T21:17:26.782Z,4.80
2018-06-13T21:19:54.954Z,4.53
2018-06-13T21:22:23.094Z,5.03
2018-06-13T21:24:51.251Z,5.73
2018-06-13T21:27:19.418Z,5.70
2018-06-13T21:29:47.698Z,4.63
2018-06-13T21:32:15.985Z,4.83
2018-06-13T21:34:44.168Z,5.00
2018-06-13T21:37:13.101Z,5.20
2018-06-13T21:39:41.893Z,5.40
2018-06-13T21:42:10.049Z,4.73
2018-06-13T21:44:38.199Z,6.60
2018-06-13T21:47:06.354Z,5.50
2018-06-13T21:49:34.521Z,4.87
2018-06-13T21:52:02.782Z,4.90
2018-06-13T21:54:30.934Z,4.93
2018-06-13T21:56:59.083Z,5.00
2018-06-13T21:59:27.222Z,5.00
2018-06-13T22:01:55.503Z,4.90
2018-06-13T22:04:23.650Z,4.87
2018-06-13T22:06:51.992Z,4.70
2018-06-13T22:09:19.985Z,4.47
2018-06-13T22:11:53.725Z,4.60
2018-06-13T22:14:22.966Z,5.07
2018-06-13T22:16:51.686Z,4.63
2018-06-13T22:19:20.366Z,4.80
2018-06-13T22:21:48.538Z,5.00
2018-06-13T22:24:16.818Z,5.60
2018-06-13T22:26:45.292Z,5.67
2018-06-13T22:29:13.426Z,5.90
2018-06-13T22:31:41.578Z,4.60
2018-06-13T22:34:09.848Z,5.30
2018-06-13T22:36:38.273Z,6.00
2018-06-13T22:39:08.293Z,5.80
2018-06-13T22:41:36.442Z,5.63
2018-06-13T22:44:04.677Z,5.30
2018-06-13T22:46:32.838Z,5.80
2018-06-13T22:49:01.043Z,5.27
2018-06-13T22:51:29.337Z,5.50
2018-06-13T22:53:57.529Z,5.23
2018-06-13T22:56:25.895Z,4.97
2018-06-13T22:58:54.101Z,5.53
2018-06-13T23:01:22.316Z,5.63
2018-06-13T23:03:50.461Z,6.17
2018-06-13T23:06:18.607Z,5.50
2018-06-13T23:08:46.758Z,5.97
2018-06-13T23:11:14.909Z,5.80
2018-06-13T23:13:43.110Z,6.10
2018-06-13T23:16:11.250Z,5.67
2018-06-13T23:18:39.394Z,5.93
2018-06-13T23:21:07.530Z,5.70
2018-06-13T23:23:35.701Z,5.70
2018-06-13T23:26:03.847Z,6.10
2018-06-13T23:28:31.991Z,5.97
2018-06-13T23:31:00.234Z,5.93
2018-06-13T23:33:28.438Z,5.93
2018-06-13T23:35:56.582Z,6.17
2018-06-13T23:38:24.520Z,5.97
2018-06-13T23:40:53.225Z,5.70
2018-06-13T23:43:21.535Z,6.60
2018-06-13T23:45:49.689Z,6.07
2018-06-13T23:48:17.595Z,7.47
2018-06-13T23:50:45.750Z,6.10
2018-06-13T23:53:13.710Z,6.43
2018-06-13T23:55:41.855Z,6.00
2018-06-13T23:58:10.022Z,6.07
